Time;durP1;ratioP1;P1;durP2;ratioP2;P2;SDS_P1;SDS_P2;PMS_P1;PMS_P2;Temp;Humidity;BMP_temperature;BMP_pressure;BME280_temperature;BME280_humidity;BME280_pressure;Samples;Min_cycle;Max_cycle;Signal;HPM_P1;HPM_P2
2021/03/18 00:01:47;;;;;;;;;;;;;;;-144.01;100.00;62166.59;5017994;28;19925;-69
2021/03/18 00:04:16;;;;;;;;;;;;;;;-144.01;100.00;62166.59;5018804;28;19914;-68
2021/03/18 00:06:43;;;;;;;;;;;;;;;-144.01;100.00;62166.59;5021983;28;19917;-49
2021/03/18 00:09:13;;;;;;;;;;;;;;;-144.01;100.00;62166.59;5038471;28;19913;-57
2021/03/18 00:11:41;;;;;;;;;;;;;;;-144.01;100.00;62166.59;5038410;28;19913;-48
2021/03/18 00:14:09;;;;;;;;;;;;;;;-144.01;100.00;62166.59;5038285;28;19920;-54
2021/03/18 00:16:36;;;;;;;;;;;;;;;-144.01;100.00;62166.59;5037987;28;19928;-46
2021/03/18 00:19:03;;;;;;;;;;;;;;;-144.01;100.00;62166.59;5038328;28;20255;-60
2021/03/18 00:21:30;;;;;;;;;;;;;;;-144.01;100.00;62166.59;5038169;28;19924;-68
2021/03/18 00:23:57;;;;;;;;;;;;;;;-144.01;100.00;62166.59;5038123;28;19944;-69
2021/03/18 00:26:28;;;;;;;;;;;;;;;-144.01;100.00;62166.59;5037490;28;20231;-68
2021/03/18 00:28:55;;;;;;;;;;;;;;;-144.01;100.00;62166.59;5037621;28;19930;-50
2021/03/18 00:31:23;;;;;;;;;;;;;;;-144.01;100.00;62166.59;5037895;28;19913;-70
2021/03/18 00:33:50;;;;;;;;;;;;;;;-144.01;100.00;62166.59;5037799;28;19913;-69
2021/03/18 00:36:18;;;;;;;;;;;;;;;-144.01;100.00;62166.59;5036830;28;19913;-51
2021/03/18 00:38:45;;;;;;;;;;;;;;;-144.01;100.00;62166.59;5029834;28;19920;-63
2021/03/18 00:41:12;;;;;;;;;;;;;;;-144.01;100.00;62166.59;5037484;28;19917;-55
2021/03/18 00:43:39;;;;;;;;;;;;;;;-144.01;100.00;62166.59;5037190;28;19913;-55
2021/03/18 00:46:07;;;;;;;;;;;;;;;-144.01;100.00;62166.59;5039309;28;19920;-69
2021/03/18 00:48:35;;;;;;;;;;;;;;;-144.01;100.00;62166.59;5036720;28;19971;-69
2021/03/18 00:51:04;;;;;;;;;;;;;;;-144.01;100.00;62166.59;5037390;28;19917;-69
2021/03/18 00:53:33;;;;;;;;;;;;;;;-144.01;100.00;62166.59;5020088;28;20244;-68
2021/03/18 00:56:00;;;;;;;;;;;;;;;-144.01;100.00;62166.59;5037470;28;19913;-63
2021/03/18 00:58:27;;;;;;;;;;;;;;;-144.01;100.00;62166.59;5030379;28;19920;-50
2021/03/18 01:00:56;;;;;;;;;;;;;;;-144.01;100.00;62166.59;5037203;28;19921;-49
2021/03/18 01:03:25;;;;;;;;;;;;;;;-144.01;100.00;62166.59;5035470;28;19943;-52
2021/03/18 01:05:53;;;;;;;;;;;;;;;-144.01;100.00;62166.59;5036060;28;19916;-53
2021/03/18 01:08:21;;;;;;;;;;;;;;;-144.01;100.00;62166.59;5036681;28;20239;-69
2021/03/18 01:10:50;;;;;;;;;;;;;;;-144.01;100.00;62166.59;5037313;28;20414;-68
2021/03/18 01:13:19;;;;;;;;;;;;;;;-144.01;100.00;62166.59;5037063;28;20035;-68
2021/03/18 01:15:46;;;;;;;;;;;;;;;-144.01;100.00;62166.59;5029247;28;19920;-57
2021/03/18 01:18:15;;;;;;;;;;;;;;;-144.01;100.00;62166.59;5021110;28;19913;-58
2021/03/18 01:20:42;;;;;;;;;;;;;;;-144.01;100.00;62166.59;5036974;28;19921;-50
2021/03/18 01:23:09;;;;;;;;;;;;;;;-144.01;100.00;62166.59;5036700;28;19968;-51
2021/03/18 01:25:36;;;;;;;;;;;;;;;-144.01;100.00;62166.59;5036827;28;20232;-62
2021/03/18 01:28:04;;;;;;;;;;;;;;;-144.01;100.00;62166.59;5041594;28;20295;-54
2021/03/18 01:30:31;;;;;;;;;;;;;;;-144.01;100.00;62166.59;5033121;28;20334;-54
2021/03/18 01:32:58;;;;;;;;;;;;;;;-144.01;100.00;62166.59;5036174;28;19917;-68
2021/03/18 01:35:25;;;;;;;;;;;;;;;-144.01;100.00;62166.59;5036912;28;19913;-68
2021/03/18 01:37:52;;;;;;;;;;;;;;;-144.01;100.00;62166.59;5035876;28;19921;-68
2021/03/18 01:40:24;;;;;;;;;;;;;;;-144.01;100.00;62166.59;5036940;28;19924;-57
2021/03/18 01:42:52;;;;;;;;;;;;;;;-144.01;100.00;62166.59;5036707;28;19917;-54
2021/03/18 01:45:19;;;;;;;;;;;;;;;-144.01;100.00;62166.59;5036607;28;19917;-51
2021/03/18 01:47:46;;;;;;;;;;;;;;;-144.01;100.00;62166.59;5036341;28;19934;-57
2021/03/18 01:50:14;;;;;;;;;;;;;;;-144.01;100.00;62166.59;5036567;28;19920;-59
2021/03/18 01:52:41;;;;;;;;;;;;;;;-144.01;100.00;62166.59;5036558;28;19916;-52
2021/03/18 01:55:10;;;;;;;;;;;;;;;-144.01;100.00;62166.59;5036407;28;19913;-49
2021/03/18 01:57:38;;;;;;;;;;;;;;;-144.01;100.00;62166.59;5036507;28;19924;-55
2021/03/18 02:00:06;;;;;;;;;;;;;;;-144.01;100.00;62166.59;5002978;28;20355;-49
2021/03/18 02:02:40;;;;;;;;;;;;;;;-144.01;100.00;62166.59;5016439;28;19924;-68
2021/03/18 02:05:09;;;;;;;;;;;;;;;-144.01;100.00;62166.59;5016829;28;19913;-52
2021/03/18 02:07:36;;;;;;;;;;;;;;;-144.01;100.00;62166.59;5016154;28;19913;-58
2021/03/18 02:10:04;;;;;;;;;;;;;;;-144.01;100.00;62166.59;5037018;28;19946;-68
2021/03/18 02:12:32;;;;;;;;;;;;;;;-144.01;100.00;62166.59;5036180;28;19921;-50
2021/03/18 02:14:59;;;;;;;;;;;;;;;-144.01;100.00;62166.59;5035789;28;19920;-53
2021/03/18 02:17:32;;;;;;;;;;;;;;;-144.01;100.00;62166.59;5036164;28;19913;-54
2021/03/18 02:20:18;;;;;;;;;;;;;;;-144.01;100.00;62166.59;5018652;28;19940;-63
2021/03/18 02:22:55;;;;;;;;;;;;;;;-144.01;100.00;62166.59;5035943;28;20196;-48
2021/03/18 02:25:25;;;;;;;;;;;;;;;-144.01;100.00;62166.59;5036380;28;19917;-54
2021/03/18 02:28:11;;;;;;;;;;;;;;;-144.01;100.00;62166.59;5034446;28;19921;-60
2021/03/18 02:30:38;;;;;;;;;;;;;;;-144.01;100.00;62166.59;5016029;28;19921;-56
2021/03/18 02:33:23;;;;;;;;;;;;;;;-144.01;100.00;62166.59;5015954;28;19918;-54
2021/03/18 02:35:51;;;;;;;;;;;;;;;-144.01;100.00;62166.59;5016001;28;19944;-48
2021/03/18 02:38:24;;;;;;;;;;;;;;;-144.01;100.00;62166.59;5012430;28;19913;-55
2021/03/18 02:40:51;;;;;;;;;;;;;;;-144.01;100.00;62166.59;5025611;28;19917;-58
2021/03/18 02:43:20;;;;;;;;;;;;;;;-144.01;100.00;62166.59;5034449;28;20231;-66
2021/03/18 02:45:47;;;;;;;;;;;;;;;-144.01;100.00;62166.59;5035608;28;19944;-51
2021/03/18 02:48:22;;;;;;;;;;;;;;;-144.01;100.00;62166.59;5036904;28;19920;-51
2021/03/18 02:50:50;;;;;;;;;;;;;;;-144.01;100.00;62166.59;5039743;28;19920;-59
2021/03/18 02:53:17;;;;;;;;;;;;;;;-144.01;100.00;62166.59;5054927;28;19916;-67
2021/03/18 02:55:45;;;;;;;;;;;;;;;-144.01;100.00;62166.59;5039509;28;19913;-51
2021/03/18 02:58:13;;;;;;;;;;;;;;;-144.01;100.00;62166.59;5038936;28;19916;-59
2021/03/18 03:00:40;;;;;;;;;;;;;;;-144.01;100.00;62166.59;5039284;28;19917;-65
2021/03/18 03:03:07;;;;;;;;;;;;;;;-144.01;100.00;62166.59;5039214;28;19913;-52
2021/03/18 03:05:34;;;;;;;;;;;;;;;-144.01;100.00;62166.59;5037977;28;19940;-57
2021/03/18 03:08:01;;;;;;;;;;;;;;;-144.01;100.00;62166.59;5054213;28;19920;-66
2021/03/18 03:10:28;;;;;;;;;;;;;;;-144.01;100.00;62166.59;5020083;28;19917;-48
2021/03/18 03:12:55;;;;;;;;;;;;;;;-144.01;100.00;62166.59;5018265;28;19913;-52
2021/03/18 03:15:23;;;;;;;;;;;;;;;-144.01;100.00;62166.59;5036506;28;20311;-58
2021/03/18 03:17:51;;;;;;;;;;;;;;;-144.01;100.00;62166.59;5035610;28;19925;-66
2021/03/18 03:20:18;;;;;;;;;;;;;;;-144.01;100.00;62166.59;5019716;28;19913;-55
2021/03/18 03:22:45;;;;;;;;;;;;;;;-144.01;100.00;62166.59;5038792;28;20260;-55
2021/03/18 03:25:13;;;;;;;;;;;;;;;-144.01;100.00;62166.59;5039010;28;19924;-66
2021/03/18 03:27:42;;;;;;;;;;;;;;;-144.01;100.00;62166.59;5038440;28;19917;-49
2021/03/18 03:30:09;;;;;;;;;;;;;;;-144.01;100.00;62166.59;5038879;28;19917;-51
2021/03/18 03:32:36;;;;;;;;;;;;;;;-144.01;100.00;62166.59;5037011;28;20309;-61
2021/03/18 03:35:05;;;;;;;;;;;;;;;-144.01;100.00;62166.59;5039084;28;19913;-49
2021/03/18 03:37:32;;;;;;;;;;;;;;;-144.01;100.00;62166.59;5038683;28;19917;-54
2021/03/18 03:39:59;;;;;;;;;;;;;;;-144.01;100.00;62166.59;5038919;28;20303;-53
2021/03/18 03:42:26;;;;;;;;;;;;;;;-144.01;100.00;62166.59;5038819;28;19928;-66
2021/03/18 03:44:52;;;;;;;;;;;;;;;-144.01;100.00;62166.59;5039122;28;19917;-54
2021/03/18 03:47:19;;;;;;;;;;;;;;;-144.01;100.00;62166.59;5038629;28;19913;-57
2021/03/18 03:49:46;;;;;;;;;;;;;;;-144.01;100.00;62166.59;5038699;28;19920;-51
2021/03/18 03:52:20;;;;;;;;;;;;;;;-144.01;100.00;62166.59;5038595;28;19913;-56
2021/03/18 03:55:07;;;;;;;;;;;;;;;-144.01;100.00;62166.59;5038630;28;20287;-53
2021/03/18 03:57:52;;;;;;;;;;;;;;;-144.01;100.00;62166.59;5038335;28;20228;-58
2021/03/18 04:00:19;;;;;;;;;;;;;;;-144.01;100.00;62166.59;5037148;28;19917;-56
2021/03/18 04:02:46;;;;;;;;;;;;;;;-144.01;100.00;62166.59;5037344;28;19917;-52
2021/03/18 04:05:13;;;;;;;;;;;;;;;-144.01;100.00;62166.59;5038575;28;19913;-49
2021/03/18 04:07:40;;;;;;;;;;;;;;;-144.01;100.00;62166.59;5037885;28;20334;-48
2021/03/18 04:10:08;;;;;;;;;;;;;;;-144.01;100.00;62166.59;5038349;28;19913;-55
2021/03/18 04:12:35;;;;;;;;;;;;;;;-144.01;100.00;62166.59;5037251;28;19913;-48
2021/03/18 04:15:06;;;;;;;;;;;;;;;-144.01;100.00;62166.59;5038032;28;19964;-48
2021/03/18 04:17:33;;;;;;;;;;;;;;;-144.01;100.00;62166.59;5038008;28;19913;-55
2021/03/18 04:20:01;;;;;;;;;;;;;;;-144.01;100.00;62166.59;5038282;28;19943;-47
2021/03/18 04:22:28;;;;;;;;;;;;;;;-144.01;100.00;62166.59;5036608;28;19917;-57
2021/03/18 04:24:55;;;;;;;;;;;;;;;-144.01;100.00;62166.59;5052265;28;19913;-49
2021/03/18 04:27:22;;;;;;;;;;;;;;;-144.01;100.00;62166.59;5053695;28;19913;-50
2021/03/18 04:29:49;;;;;;;;;;;;;;;-144.01;100.00;62166.59;5037852;28;19917;-56
2021/03/18 04:32:16;;;;;;;;;;;;;;;-144.01;100.00;62166.59;5036928;28;19919;-64
2021/03/18 04:34:43;;;;;;;;;;;;;;;-144.01;100.00;62166.59;5033399;28;19917;-52
2021/03/18 04:37:10;;;;;;;;;;;;;;;-144.01;100.00;62166.59;5017323;28;19920;-52
2021/03/18 04:39:38;;;;;;;;;;;;;;;-144.01;100.00;62166.59;5016239;28;20251;-52
2021/03/18 04:42:05;;;;;;;;;;;;;;;-144.01;100.00;62166.59;5017125;28;19917;-63
2021/03/18 04:44:33;;;;;;;;;;;;;;;-144.01;100.00;62166.59;5025007;28;19920;-62
2021/03/18 04:47:00;;;;;;;;;;;;;;;-144.01;100.00;62166.59;5036935;28;19913;-61
2021/03/18 04:49:27;;;;;;;;;;;;;;;-144.01;100.00;62166.59;5037482;28;20299;-55
2021/03/18 04:51:54;;;;;;;;;;;;;;;-144.01;100.00;62166.59;5036663;28;19924;-59
2021/03/18 04:54:21;;;;;;;;;;;;;;;-144.01;100.00;62166.59;5037651;28;19913;-50
2021/03/18 04:56:48;;;;;;;;;;;;;;;-144.01;100.00;62166.59;5037516;28;19920;-62
2021/03/18 04:59:16;;;;;;;;;;;;;;;-144.01;100.00;62166.59;5036020;28;19917;-65
2021/03/18 05:01:43;;;;;;;;;;;;;;;-144.01;100.00;62166.59;5019915;28;19917;-52
2021/03/18 05:04:10;;;;;;;;;;;;;;;-144.01;100.00;62166.59;5021750;28;19921;-49
2021/03/18 05:06:37;;;;;;;;;;;;;;;-144.01;100.00;62166.59;5035828;28;19919;-58
2021/03/18 05:09:04;;;;;;;;;;;;;;;-144.01;100.00;62166.59;5048609;28;19923;-52
2021/03/18 05:11:31;;;;;;;;;;;;;;;-144.01;100.00;62166.59;5052571;28;20296;-53
2021/03/18 05:13:58;;;;;;;;;;;;;;;-144.01;100.00;62166.59;5052668;28;19917;-51
2021/03/18 05:16:26;;;;;;;;;;;;;;;-144.01;100.00;62166.59;5035920;28;19916;-54
2021/03/18 05:18:54;;;;;;;;;;;;;;;-144.01;100.00;62166.59;5017216;28;19925;-58
2021/03/18 05:21:20;;;;;;;;;;;;;;;-144.01;100.00;62166.59;5048028;28;19917;-57
2021/03/18 05:23:47;;;;;;;;;;;;;;;-144.01;100.00;62166.59;5031401;28;19948;-52
2021/03/18 05:26:14;;;;;;;;;;;;;;;-144.01;100.00;62166.59;5032859;28;20649;-54
2021/03/18 05:28:41;;;;;;;;;;;;;;;-144.01;100.00;62166.59;5025806;28;19917;-54
2021/03/18 05:31:08;;;;;;;;;;;;;;;-144.01;100.00;62166.59;5036016;28;20293;-46
2021/03/18 05:33:35;;;;;;;;;;;;;;;-144.01;100.00;62166.59;5036562;28;19912;-69
2021/03/18 05:36:02;;;;;;;;;;;;;;;-144.01;100.00;62166.59;5036074;28;19920;-70
2021/03/18 05:38:29;;;;;;;;;;;;;;;-144.01;100.00;62166.59;5036721;28;19920;-66
2021/03/18 05:40:56;;;;;;;;;;;;;;;-144.01;100.00;62166.59;5036950;28;19913;-67
2021/03/18 05:43:24;;;;;;;;;;;;;;;-144.01;100.00;62166.59;5036801;28;19917;-67
2021/03/18 05:45:51;;;;;;;;;;;;;;;-144.01;100.00;62166.59;5036658;28;19917;-67
2021/03/18 05:48:19;;;;;;;;;;;;;;;-144.01;100.00;62166.59;5036552;28;19920;-67
2021/03/18 05:50:46;;;;;;;;;;;;;;;-144.01;100.00;62166.59;5036672;28;19913;-67
2021/03/18 05:53:13;;;;;;;;;;;;;;;-144.01;100.00;62166.59;5036562;28;19920;-67
2021/03/18 05:55:40;;;;;;;;;;;;;;;-144.01;100.00;62166.59;5036606;28;19920;-67
2021/03/18 05:58:07;;;;;;;;;;;;;;;-144.01;100.00;62166.59;5034604;28;20296;-67
2021/03/18 06:00:35;;;;;;;;;;;;;;;-144.01;100.00;62166.59;5015684;28;19928;-67
2021/03/18 06:03:02;;;;;;;;;;;;;;;-144.01;100.00;62166.59;5015635;28;19922;-68
2021/03/18 06:05:29;;;;;;;;;;;;;;;-144.01;100.00;62166.59;5017545;28;19913;-67
2021/03/18 06:07:56;;;;;;;;;;;;;;;-144.01;100.00;62166.59;5036012;28;19913;-73
2021/03/18 06:10:23;;;;;;;;;;;;;;;-144.01;100.00;62166.59;5036458;28;19975;-73
2021/03/18 06:12:51;;;;;;;;;;;;;;;-144.01;100.00;62166.59;5036178;28;19924;-67
2021/03/18 06:15:18;;;;;;;;;;;;;;;-144.01;100.00;62166.59;5036301;28;19920;-67
2021/03/18 06:17:45;;;;;;;;;;;;;;;-144.01;100.00;62166.59;5035919;28;19913;-67
2021/03/18 06:20:22;;;;;;;;;;;;;;;-144.01;100.00;62166.59;5051808;28;19940;-67
2021/03/18 06:22:49;;;;;;;;;;;;;;;-144.01;100.00;62166.59;5051083;28;19917;-67
2021/03/18 06:25:22;;;;;;;;;;;;;;;-144.01;100.00;62166.59;5036037;28;19913;-67
2021/03/18 06:27:49;;;;;;;;;;;;;;;-144.01;100.00;62166.59;5035639;28;19924;-67
2021/03/18 06:30:16;;;;;;;;;;;;;;;-144.01;100.00;62166.59;5035563;28;19917;-66
2021/03/18 06:32:43;;;;;;;;;;;;;;;-144.01;100.00;62166.59;5019549;28;19912;-67
2021/03/18 06:35:11;;;;;;;;;;;;;;;-144.01;100.00;62166.59;5035924;28;19913;-68
2021/03/18 06:37:46;;;;;;;;;;;;;;;-144.01;100.00;62166.59;5035505;28;19924;-67
2021/03/18 06:40:20;;;;;;;;;;;;;;;-144.01;100.00;62166.59;5035867;28;19913;-68
2021/03/18 06:42:55;;;;;;;;;;;;;;;-144.01;100.00;62166.59;5035596;28;19917;-73
2021/03/18 06:45:22;;;;;;;;;;;;;;;-144.01;100.00;62166.59;5035699;28;19920;-73
2021/03/18 06:47:53;;;;;;;;;;;;;;;-144.01;100.00;62166.59;5035369;28;19913;-73
2021/03/18 06:50:23;;;;;;;;;;;;;;;-144.01;100.00;62166.59;5035729;28;19913;-74
2021/03/18 06:52:50;;;;;;;;;;;;;;;-144.01;100.00;62166.59;5034805;28;19913;-73
2021/03/18 06:55:43;;;;;;;;;;;;;;;-144.01;100.00;62166.59;5035511;28;20231;-74
2021/03/18 06:58:17;;;;;;;;;;;;;;;-144.01;100.00;62166.59;5030600;28;19920;-74
2021/03/18 07:00:46;;;;;;;;;;;;;;;-144.01;100.00;62166.59;5016996;28;20201;-74
2021/03/18 07:03:32;;;;;;;;;;;;;;;-144.01;100.00;62166.59;5023197;28;19920;-74
2021/03/18 07:05:59;;;;;;;;;;;;;;;-144.01;100.00;62166.59;5035520;28;19913;-73
2021/03/18 07:08:36;;;;;;;;;;;;;;;-144.01;100.00;62166.59;5035455;28;20304;-73
2021/03/18 07:11:22;;;;;;;;;;;;;;;-144.01;100.00;62166.59;5035421;28;19920;-74
2021/03/18 07:13:52;;;;;;;;;;;;;;;-144.01;100.00;62166.59;5035035;28;19917;-74
2021/03/18 07:16:19;;;;;;;;;;;;;;;-144.01;100.00;62166.59;5035502;28;19917;-67
2021/03/18 07:18:58;;;;;;;;;;;;;;;-144.01;100.00;62166.59;5035452;28;19921;-68
2021/03/18 07:21:35;;;;;;;;;;;;;;;-144.01;100.00;62166.59;5035146;28;19944;-67
2021/03/18 07:24:02;;;;;;;;;;;;;;;-144.01;100.00;62166.59;5034770;28;20236;-68
2021/03/18 07:26:30;;;;;;;;;;;;;;;-144.01;100.00;62166.59;5035303;28;19917;-67
2021/03/18 07:29:15;;;;;;;;;;;;;;;-144.01;100.00;62166.59;5034167;28;19929;-68
2021/03/18 07:31:42;;;;;;;;;;;;;;;-144.01;100.00;62166.59;5035308;28;19913;-67
2021/03/18 07:34:09;;;;;;;;;;;;;;;-144.01;100.00;62166.59;5036660;28;19913;-68
2021/03/18 07:36:36;;;;;;;;;;;;;;;-144.01;100.00;62166.59;5038866;28;19920;-67
2021/03/18 07:39:04;;;;;;;;;;;;;;;-144.01;100.00;62166.59;5039226;28;19913;-67
2021/03/18 07:41:31;;;;;;;;;;;;;;;-144.01;100.00;62166.59;5039207;28;19921;-73
2021/03/18 07:43:59;;;;;;;;;;;;;;;-144.01;100.00;62166.59;5038538;28;19924;-72
2021/03/18 07:46:26;;;;;;;;;;;;;;;-144.01;100.00;62166.59;5038914;28;19917;-67
2021/03/18 07:49:00;;;;;;;;;;;;;;;-144.01;100.00;62166.59;5045141;28;19917;-68
2021/03/18 07:51:27;;;;;;;;;;;;;;;-144.01;100.00;62166.59;5034683;28;19948;-68
2021/03/18 07:53:55;;;;;;;;;;;;;;;-144.01;100.00;62166.59;5037159;28;20296;-74
2021/03/18 07:56:22;;;;;;;;;;;;;;;-144.01;100.00;62166.59;5038912;28;19920;-73
2021/03/18 07:58:49;;;;;;;;;;;;;;;-144.01;100.00;62166.59;5038627;28;19921;-74
2021/03/18 08:01:31;;;;;;;;;;;;;;;-144.01;100.00;62166.59;5038936;28;19924;-74
2021/03/18 08:03:59;;;;;;;;;;;;;;;-144.01;100.00;62166.59;5038218;28;19928;-74
2021/03/18 08:06:44;;;;;;;;;;;;;;;-144.01;100.00;62166.59;5038635;28;19916;-67
2021/03/18 08:09:12;;;;;;;;;;;;;;;-144.01;100.00;62166.59;5038326;28;19920;-67
2021/03/18 08:11:39;;;;;;;;;;;;;;;-144.01;100.00;62166.59;5038367;28;19913;-73
2021/03/18 08:14:07;;;;;;;;;;;;;;;-144.01;100.00;62166.59;5038168;28;19917;-72
2021/03/18 08:16:34;;;;;;;;;;;;;;;-144.01;100.00;62166.59;5038533;28;19944;-68
2021/03/18 08:19:01;;;;;;;;;;;;;;;-144.01;100.00;62166.59;5037441;28;19913;-68
2021/03/18 08:21:36;;;;;;;;;;;;;;;-144.01;100.00;62166.59;5054048;28;19912;-69
2021/03/18 08:24:07;;;;;;;;;;;;;;;-144.01;100.00;62166.59;5036063;28;19917;-74
2021/03/18 08:26:38;;;;;;;;;;;;;;;-144.01;100.00;62166.59;5037087;28;19920;-67
2021/03/18 08:29:08;;;;;;;;;;;;;;;-144.01;100.00;62166.59;5033085;28;19921;-67
2021/03/18 08:31:42;;;;;;;;;;;;;;;-144.01;100.00;62166.59;5017967;28;19924;-67
2021/03/18 08:34:09;;;;;;;;;;;;;;;-144.01;100.00;62166.59;5020017;28;19917;-68
2021/03/18 08:36:40;;;;;;;;;;;;;;;-144.01;100.00;62166.59;5037792;28;20341;-67
2021/03/18 08:39:07;;;;;;;;;;;;;;;-144.01;100.00;62166.59;5037809;28;19913;-68
2021/03/18 08:41:44;;;;;;;;;;;;;;;-144.01;100.00;62166.59;5036758;28;19912;-67
2021/03/18 08:44:15;;;;;;;;;;;;;;;-144.01;100.00;62166.59;5052999;28;19917;-68
2021/03/18 08:46:56;;;;;;;;;;;;;;;-144.01;100.00;62166.59;5024511;28;19914;-67
2021/03/18 08:49:30;;;;;;;;;;;;;;;-144.01;100.00;62166.59;5018566;28;19944;-67
2021/03/18 08:51:58;;;;;;;;;;;;;;;-144.01;100.00;62166.59;5037441;28;19913;-72
2021/03/18 08:54:37;;;;;;;;;;;;;;;-144.01;100.00;62166.59;5037194;28;19913;-73
2021/03/18 08:57:04;;;;;;;;;;;;;;;-144.01;100.00;62166.59;5037451;28;19913;-69
2021/03/18 08:59:31;;;;;;;;;;;;;;;-144.01;100.00;62166.59;5024179;28;19917;-67
2021/03/18 09:02:05;;;;;;;;;;;;;;;-144.01;100.00;62166.59;5030792;28;20300;-74
2021/03/18 09:04:41;;;;;;;;;;;;;;;-144.01;100.00;62166.59;5036692;28;19921;-74
2021/03/18 09:07:08;;;;;;;;;;;;;;;-144.01;100.00;62166.59;5036995;28;20346;-58
2021/03/18 09:09:35;;;;;;;;;;;;;;;-144.01;100.00;62166.59;5036944;28;20312;-62
2021/03/18 09:12:03;;;;;;;;;;;;;;;-144.01;100.00;62166.59;5037270;28;19977;-74
2021/03/18 09:14:30;;;;;;;;;;;;;;;-144.01;100.00;62166.59;5035778;28;20197;-73
2021/03/18 09:17:03;;;;;;;;;;;;;;;-144.01;100.00;62166.59;5036900;28;19924;-65
2021/03/18 09:19:30;;;;;;;;;;;;;;;-144.01;100.00;62166.59;5036734;28;19920;-74
2021/03/18 09:21:57;;;;;;;;;;;;;;;-144.01;100.00;62166.59;5036772;28;19916;-67
2021/03/18 09:24:34;;;;;;;;;;;;;;;-144.01;100.00;62166.59;5032836;28;19936;-67
2021/03/18 09:27:04;;;;;;;;;;;;;;;-144.01;100.00;62166.59;5019285;28;19912;-68
2021/03/18 09:29:43;;;;;;;;;;;;;;;-144.01;100.00;62166.59;5033428;28;19928;-68
2021/03/18 09:32:11;;;;;;;;;;;;;;;-144.01;100.00;62166.59;5036699;28;20350;-68
2021/03/18 09:34:39;;;;;;;;;;;;;;;-144.01;100.00;62166.59;5036236;28;19925;-67
2021/03/18 09:37:06;;;;;;;;;;;;;;;-144.01;100.00;62166.59;5036385;28;19924;-74
2021/03/18 09:39:33;;;;;;;;;;;;;;;-144.01;100.00;62166.59;5036357;28;20275;-72
2021/03/18 09:42:02;;;;;;;;;;;;;;;-144.01;100.00;62166.59;5036554;28;19924;-73
2021/03/18 09:44:30;;;;;;;;;;;;;;;-144.01;100.00;62166.59;5036134;28;20560;-72
2021/03/18 09:47:01;;;;;;;;;;;;;;;-144.01;100.00;62166.59;5036491;28;19916;-72
2021/03/18 09:49:35;;;;;;;;;;;;;;;-144.01;100.00;62166.59;5036013;28;19913;-74
2021/03/18 09:52:09;;;;;;;;;;;;;;;-144.01;100.00;62166.59;5018685;28;19917;-74
2021/03/18 09:54:36;;;;;;;;;;;;;;;-144.01;100.00;62166.59;5036109;28;19928;-74
2021/03/18 09:57:04;;;;;;;;;;;;;;;-144.01;100.00;62166.59;5034710;28;19967;-67
2021/03/18 09:59:31;;;;;;;;;;;;;;;-144.01;100.00;62166.59;5035234;28;19924;-67
2021/03/18 10:01:58;;;;;;;;;;;;;;;-144.01;100.00;62166.59;5035899;28;19913;-68
2021/03/18 10:04:25;;;;;;;;;;;;;;;-144.01;100.00;62166.59;5035584;28;19924;-67
2021/03/18 10:06:53;;;;;;;;;;;;;;;-144.01;100.00;62166.59;5035798;28;19913;-67
2021/03/18 10:09:27;;;;;;;;;;;;;;;-144.01;100.00;62166.59;5036163;28;19917;-68
2021/03/18 10:11:54;;;;;;;;;;;;;;;-144.01;100.00;62166.59;5035717;28;20304;-66
2021/03/18 10:14:30;;;;;;;;;;;;;;;-144.01;100.00;62166.59;5035642;28;20296;-67
2021/03/18 10:17:00;;;;;;;;;;;;;;;-144.01;100.00;62166.59;5018630;28;19920;-67
2021/03/18 10:19:28;;;;;;;;;;;;;;;-144.01;100.00;62166.59;5018576;28;19920;-67
2021/03/18 10:21:55;;;;;;;;;;;;;;;-144.01;100.00;62166.59;5018295;28;19920;-66
2021/03/18 10:24:22;;;;;;;;;;;;;;;-144.01;100.00;62166.59;5018167;28;19928;-66
2021/03/18 10:26:49;;;;;;;;;;;;;;;-144.01;100.00;62166.59;5018336;28;20354;-67
2021/03/18 10:29:16;;;;;;;;;;;;;;;-144.01;100.00;62166.59;5030231;28;19921;-68
2021/03/18 10:31:43;;;;;;;;;;;;;;;-144.01;100.00;62166.59;5035276;28;19912;-67
2021/03/18 10:34:23;;;;;;;;;;;;;;;-144.01;100.00;62166.59;5036061;28;19920;-68
2021/03/18 10:36:50;;;;;;;;;;;;;;;-144.01;100.00;62166.59;5028781;28;20296;-68
2021/03/18 10:39:20;;;;;;;;;;;;;;;-144.01;100.00;62166.59;5036285;28;19920;-67
2021/03/18 10:41:49;;;;;;;;;;;;;;;-144.01;100.00;62166.59;5038789;28;19944;-67
2021/03/18 10:44:17;;;;;;;;;;;;;;;-144.01;100.00;62166.59;5038357;28;19916;-67
2021/03/18 10:46:44;;;;;;;;;;;;;;;-144.01;100.00;62166.59;5055935;28;19913;-68
2021/03/18 10:49:12;;;;;;;;;;;;;;;-144.01;100.00;62166.59;5055822;28;19913;-67
2021/03/18 10:51:50;;;;;;;;;;;;;;;-144.01;100.00;62166.59;5055612;28;19916;-67
2021/03/18 10:54:20;;;;;;;;;;;;;;;-144.01;100.00;62166.59;5055756;28;20225;-65
2021/03/18 10:56:50;;;;;;;;;;;;;;;-144.01;100.00;62166.59;5045069;28;19913;-67
2021/03/18 10:59:20;;;;;;;;;;;;;;;-144.01;100.00;62166.59;5024491;28;19922;-68
2021/03/18 11:01:48;;;;;;;;;;;;;;;-144.01;100.00;62166.59;5015758;28;19923;-64
2021/03/18 11:04:15;;;;;;;;;;;;;;;-144.01;100.00;62166.59;5034840;28;19917;-65
2021/03/18 11:06:48;;;;;;;;;;;;;;;-144.01;100.00;62166.59;5036877;28;19920;-68
2021/03/18 11:09:16;;;;;;;;;;;;;;;-144.01;100.00;62166.59;5037332;28;19939;-46
2021/03/18 11:11:53;;;;;;;;;;;;;;;-144.01;100.00;62166.59;5039466;28;20253;-69
2021/03/18 11:14:20;;;;;;;;;;;;;;;-144.01;100.00;62166.59;5021429;28;19918;-67
2021/03/18 11:16:47;;;;;;;;;;;;;;;-144.01;100.00;62166.59;5039534;28;19917;-67
2021/03/18 11:19:14;;;;;;;;;;;;;;;-144.01;100.00;62166.59;5039457;28;19913;-68
2021/03/18 11:21:42;;;;;;;;;;;;;;;-144.01;100.00;62166.59;5039246;28;19920;-67
2021/03/18 11:24:13;;;;;;;;;;;;;;;-144.01;100.00;62166.59;5039047;28;19920;-69
2021/03/18 11:26:41;;;;;;;;;;;;;;;-144.01;100.00;62166.59;5039230;28;19913;-68
2021/03/18 11:29:09;;;;;;;;;;;;;;;-144.01;100.00;62166.59;5028978;28;19925;-68
2021/03/18 11:31:55;;;;;;;;;;;;;;;-144.01;100.00;62166.59;5018349;28;20197;-68
2021/03/18 11:34:23;;;;;;;;;;;;;;;-144.01;100.00;62166.59;5039143;28;19916;-67
2021/03/18 11:36:54;;;;;;;;;;;;;;;-144.01;100.00;62166.59;5039041;28;19917;-68
2021/03/18 11:39:21;;;;;;;;;;;;;;;-144.01;100.00;62166.59;5039201;28;19917;-74
2021/03/18 11:41:52;;;;;;;;;;;;;;;-144.01;100.00;62166.59;5039050;28;20201;-76
2021/03/18 11:44:20;;;;;;;;;;;;;;;-144.01;100.00;62166.59;5038304;28;19924;-68
2021/03/18 11:46:46;;;;;;;;;;;;;;;-144.01;100.00;62166.59;5039129;28;19913;-45
2021/03/18 11:49:13;;;;;;;;;;;;;;;-144.01;100.00;62166.59;5038988;28;19913;-75
2021/03/18 11:51:41;;;;;;;;;;;;;;;-144.01;100.00;62166.59;5038625;28;19920;-55
2021/03/18 11:54:08;;;;;;;;;;;;;;;-144.01;100.00;62166.59;5038662;28;19916;-75
2021/03/18 11:56:35;;;;;;;;;;;;;;;-144.01;100.00;62166.59;5038963;28;20239;-74
2021/03/18 11:59:02;;;;;;;;;;;;;;;-144.01;100.00;62166.59;5031991;28;19924;-74
2021/03/18 12:01:29;;;;;;;;;;;;;;;-144.01;100.00;62166.59;5038746;28;20308;-70
2021/03/18 12:03:56;;;;;;;;;;;;;;;-144.01;100.00;62166.59;5038425;28;19928;-75
2021/03/18 12:06:23;;;;;;;;;;;;;;;-144.01;100.00;62166.59;5038890;28;20243;-63
2021/03/18 12:08:50;;;;;;;;;;;;;;;-144.01;100.00;62166.59;5038442;28;19913;-74
2021/03/18 12:11:17;;;;;;;;;;;;;;;-144.01;100.00;62166.59;5038639;28;19917;-73
2021/03/18 12:13:44;;;;;;;;;;;;;;;-144.01;100.00;62166.59;5038211;28;19920;-74
2021/03/18 12:16:11;;;;;;;;;;;;;;;-144.01;100.00;62166.59;5038575;28;19917;-73
2021/03/18 12:18:37;;;;;;;;;;;;;;;-144.01;100.00;62166.59;5038559;28;19923;-74
2021/03/18 12:21:05;;;;;;;;;;;;;;;-144.01;100.00;62166.59;5037533;28;19916;-74
2021/03/18 12:23:31;;;;;;;;;;;;;;;-144.01;100.00;62166.59;5038039;28;19934;-74
2021/03/18 12:25:59;;;;;;;;;;;;;;;-144.01;100.00;62166.59;5038321;28;19920;-68
2021/03/18 12:28:26;;;;;;;;;;;;;;;-144.01;100.00;62166.59;5027788;28;20233;-67